createdAt,value
2017-02-21T00:00:14.625Z,10.69
2017-02-21T00:01:14.931Z,10.76
2017-02-21T00:02:14.950Z,10.74
2017-02-21T00:03:14.960Z,10.81
2017-02-21T00:04:14.998Z,10.72
2017-02-21T00:05:15.104Z,10.76
2017-02-21T00:06:15.007Z,10.68
2017-02-21T00:07:15.018Z,10.71
2017-02-21T00:08:14.650Z,10.76
2017-02-21T00:09:15.050Z,10.75
2017-02-21T00:10:15.077Z,10.71
2017-02-21T00:11:15.087Z,10.72
2017-02-21T00:12:15.279Z,10.78
2017-02-21T00:13:14.727Z,10.76
2017-02-21T00:14:15.129Z,10.67
2017-02-21T00:15:15.155Z,10.75
2017-02-21T00:16:14.778Z,10.71
2017-02-21T00:17:15.185Z,10.67
2017-02-21T00:18:14.796Z,10.81
2017-02-21T00:19:15.209Z,10.71
2017-02-21T00:20:14.844Z,10.76
2017-02-21T00:21:15.278Z,10.76
2017-02-21T00:22:15.275Z,10.71
2017-02-21T00:23:14.895Z,10.71
2017-02-21T00:24:15.294Z,10.76
2017-02-21T00:25:15.312Z,10.68
2017-02-21T00:26:15.331Z,10.69
2017-02-21T00:27:15.336Z,10.71
2017-02-21T00:28:15.351Z,10.78
2017-02-21T00:29:14.976Z,10.74
2017-02-21T00:30:15.384Z,10.72
2017-02-21T00:31:15.032Z,10.68
2017-02-21T00:32:15.413Z,10.69
2017-02-21T00:33:15.031Z,10.67
2017-02-21T00:34:15.465Z,10.69
2017-02-21T00:35:15.084Z,10.78
2017-02-21T00:36:15.483Z,10.74
2017-02-21T00:37:15.328Z,10.63
2017-02-21T00:38:15.593Z,10.68
2017-02-21T00:39:15.528Z,10.74
2017-02-21T00:40:15.535Z,10.72
2017-02-21T00:41:15.691Z,10.68
2017-02-21T00:42:15.180Z,10.71
2017-02-21T00:43:15.602Z,10.64
2017-02-21T00:44:15.600Z,10.67
2017-02-21T00:45:15.227Z,10.64
2017-02-21T00:46:15.639Z,10.71
2017-02-21T00:47:15.354Z,10.72
2017-02-21T00:48:15.668Z,10.67
2017-02-21T00:49:15.691Z,10.69
2017-02-21T00:50:15.694Z,10.64
2017-02-21T00:51:15.706Z,10.76
2017-02-21T00:52:15.725Z,10.71
2017-02-21T00:53:15.355Z,10.64
2017-02-21T00:54:15.770Z,10.69
2017-02-21T00:55:15.765Z,10.69
2017-02-21T00:56:15.798Z,10.68
2017-02-21T00:57:15.805Z,10.64
2017-02-21T00:58:15.825Z,10.68
2017-02-21T00:59:15.843Z,10.67
2017-02-21T01:00:15.459Z,10.68
2017-02-21T01:01:15.476Z,10.68
2017-02-21T01:02:15.899Z,10.67
2017-02-21T01:03:15.541Z,10.69
2017-02-21T01:04:15.516Z,10.67
2017-02-21T01:05:15.533Z,10.64
2017-02-21T01:06:15.943Z,10.67
2017-02-21T01:07:15.968Z,10.67
2017-02-21T01:08:15.981Z,10.67
2017-02-21T01:09:15.998Z,10.75
2017-02-21T01:10:16.015Z,10.63
2017-02-21T01:11:16.038Z,10.71
2017-02-21T01:12:16.040Z,10.63
2017-02-21T01:13:16.070Z,10.69
2017-02-21T01:14:15.682Z,10.63
2017-02-21T01:15:16.086Z,10.67
2017-02-21T01:16:16.095Z,10.68
2017-02-21T01:17:16.110Z,10.64
2017-02-21T01:18:15.738Z,10.64
2017-02-21T01:19:16.158Z,10.67
2017-02-21T01:20:16.163Z,10.68
2017-02-21T01:21:15.405Z,10.68
2017-02-21T01:22:16.217Z,10.72
2017-02-21T01:23:16.217Z,10.72
2017-02-21T01:24:16.234Z,10.67
2017-02-21T01:25:15.855Z,10.64
2017-02-21T01:26:16.267Z,10.76
2017-02-21T01:27:15.894Z,10.68
2017-02-21T01:28:16.307Z,10.68
2017-02-21T01:29:16.317Z,10.61
2017-02-21T01:30:16.401Z,10.69
2017-02-21T01:31:15.974Z,10.68
2017-02-21T01:32:15.974Z,10.71
2017-02-21T01:33:16.387Z,10.71
2017-02-21T01:34:15.994Z,10.69
2017-02-21T01:35:16.428Z,10.67
2017-02-21T01:36:16.434Z,10.68
2017-02-21T01:37:16.048Z,10.74
2017-02-21T01:38:16.469Z,10.78
2017-02-21T01:39:16.472Z,10.76
2017-02-21T01:40:16.500Z,10.81
2017-02-21T01:41:16.501Z,10.68
2017-02-21T01:42:16.144Z,10.75
2017-02-21T01:43:16.141Z,10.71
2017-02-21T01:44:15.756Z,10.69
2017-02-21T01:45:16.173Z,10.76
2017-02-21T01:46:16.191Z,10.63
2017-02-21T01:47:16.597Z,10.67
2017-02-21T01:48:16.212Z,10.71
2017-02-21T01:49:16.637Z,10.81
2017-02-21T01:50:16.652Z,10.67
2017-02-21T01:51:16.684Z,10.69
2017-02-21T01:52:16.674Z,10.64
2017-02-21T01:53:16.685Z,10.64
2017-02-21T01:54:16.707Z,10.76
2017-02-21T01:55:16.324Z,10.79
2017-02-21T01:56:16.758Z,10.71
2017-02-21T01:57:16.750Z,10.78
2017-02-21T01:58:16.778Z,10.72
2017-02-21T01:59:16.778Z,10.67
2017-02-21T02:00:16.809Z,10.74
2017-02-21T02:01:16.817Z,10.74
2017-02-21T02:02:16.831Z,10.68
2017-02-21T02:03:16.849Z,10.74
2017-02-21T02:04:16.478Z,10.78
2017-02-21T02:05:16.499Z,10.69
2017-02-21T02:06:17.009Z,10.71
2017-02-21T02:07:17.017Z,10.76
2017-02-21T02:08:16.958Z,10.76
2017-02-21T02:09:16.975Z,10.82
2017-02-21T02:10:16.954Z,10.74
2017-02-21T02:11:17.079Z,10.71
2017-02-21T02:12:16.586Z,10.69
2017-02-21T02:13:16.604Z,10.78
2017-02-21T02:14:17.120Z,10.67
2017-02-21T02:15:17.129Z,10.74
2017-02-21T02:16:17.142Z,10.69
2017-02-21T02:17:17.147Z,10.79
2017-02-21T02:18:17.145Z,10.78
2017-02-21T02:19:17.155Z,10.81
2017-02-21T02:20:17.163Z,10.67
2017-02-21T02:21:17.171Z,10.78
2017-02-21T02:22:17.179Z,10.74
2017-02-21T02:23:17.264Z,10.64
2017-02-21T02:24:17.227Z,10.76
2017-02-21T02:25:17.237Z,10.78
2017-02-21T02:26:17.245Z,10.74
2017-02-21T02:27:17.244Z,10.76
2017-02-21T02:28:17.253Z,10.67
2017-02-21T02:29:16.961Z,10.81
2017-02-21T02:30:17.272Z,10.74
2017-02-21T02:31:17.296Z,10.71
2017-02-21T02:32:16.978Z,10.76
2017-02-21T02:33:17.318Z,10.76
2017-02-21T02:34:17.345Z,10.71
2017-02-21T02:35:17.343Z,10.72
2017-02-21T02:36:17.363Z,10.78
2017-02-21T02:37:17.384Z,10.71
2017-02-21T02:38:17.398Z,10.69
2017-02-21T02:39:17.419Z,10.75
2017-02-21T02:40:17.422Z,10.79
2017-02-21T02:41:17.522Z,10.78
2017-02-21T02:42:17.465Z,10.74
2017-02-21T02:43:17.471Z,10.78
2017-02-21T02:44:17.124Z,10.78
2017-02-21T02:45:17.514Z,10.74
2017-02-21T02:46:17.524Z,10.75
2017-02-21T02:47:17.537Z,10.76
2017-02-21T02:48:17.264Z,10.78
2017-02-21T02:49:17.570Z,10.76
2017-02-21T02:50:17.589Z,10.64
2017-02-21T02:51:17.604Z,10.75
2017-02-21T02:52:17.214Z,10.69
2017-02-21T02:53:17.644Z,10.69
2017-02-21T02:54:17.246Z,10.81
2017-02-21T02:55:17.669Z,10.76
2017-02-21T02:56:17.298Z,10.75
2017-02-21T02:57:17.308Z,10.74
2017-02-21T02:58:17.326Z,10.81
2017-02-21T02:59:17.320Z,10.71
2017-02-21T03:00:17.745Z,10.76
2017-02-21T03:01:17.768Z,10.74
2017-02-21T03:02:17.379Z,10.76
2017-02-21T03:03:17.793Z,10.79
2017-02-21T03:04:17.797Z,10.71
2017-02-21T03:05:17.810Z,10.67
2017-02-21T03:06:17.837Z,10.81
2017-02-21T03:07:17.858Z,10.69
2017-02-21T03:08:17.466Z,10.68
2017-02-21T03:09:17.885Z,10.68
2017-02-21T03:10:17.893Z,10.75
2017-02-21T03:11:17.902Z,10.81
2017-02-21T03:12:17.928Z,10.67
2017-02-21T03:13:17.948Z,10.64
2017-02-21T03:14:17.564Z,10.75
2017-02-21T03:15:17.968Z,10.69
2017-02-21T03:16:17.982Z,10.67
2017-02-21T03:17:18.001Z,10.67
2017-02-21T03:18:18.027Z,10.69
2017-02-21T03:19:18.032Z,10.68
2017-02-21T03:20:18.057Z,10.74
2017-02-21T03:21:17.667Z,10.75
2017-02-21T03:22:18.083Z,10.71
2017-02-21T03:23:18.105Z,10.76
2017-02-21T03:24:17.730Z,10.71
2017-02-21T03:25:17.738Z,10.69
2017-02-21T03:26:17.754Z,10.68
2017-02-21T03:27:17.769Z,10.76
2017-02-21T03:28:18.175Z,10.71
2017-02-21T03:29:18.192Z,10.74
2017-02-21T03:30:18.207Z,10.78
2017-02-21T03:31:18.223Z,10.69
2017-02-21T03:32:18.237Z,10.78
2017-02-21T03:33:18.274Z,10.67
2017-02-21T03:34:18.278Z,10.71
2017-02-21T03:35:17.890Z,10.67
2017-02-21T03:36:18.307Z,10.72
2017-02-21T03:37:18.319Z,10.68
2017-02-21T03:38:17.990Z,10.67
2017-02-21T03:39:17.963Z,10.71
2017-02-21T03:40:18.388Z,10.75
2017-02-21T03:41:18.388Z,10.64
2017-02-21T03:42:18.404Z,10.64
2017-02-21T03:43:18.416Z,10.67
2017-02-21T03:44:18.434Z,10.78
2017-02-21T03:45:18.047Z,10.68
2017-02-21T03:46:18.460Z,10.74
2017-02-21T03:47:18.505Z,10.76
2017-02-21T03:48:18.502Z,10.71
2017-02-21T03:49:18.501Z,10.69
2017-02-21T03:50:18.518Z,10.78
2017-02-21T03:51:18.146Z,10.71
2017-02-21T03:52:18.563Z,10.67
2017-02-21T03:53:18.573Z,10.74
2017-02-21T03:54:18.581Z,10.72
2017-02-21T03:55:18.602Z,10.72
2017-02-21T03:56:18.227Z,10.71
2017-02-21T03:57:18.627Z,10.74
2017-02-21T03:58:18.650Z,10.67
2017-02-21T03:59:18.471Z,10.64
2017-02-21T04:00:18.473Z,10.67
2017-02-21T04:01:18.705Z,10.69
2017-02-21T04:02:18.739Z,10.69
2017-02-21T04:03:18.736Z,10.69
2017-02-21T04:04:18.747Z,10.6
2017-02-21T04:05:18.473Z,10.64
2017-02-21T04:06:18.793Z,10.69
2017-02-21T04:07:18.798Z,10.67
2017-02-21T04:08:18.805Z,10.68
2017-02-21T04:09:18.819Z,10.61
2017-02-21T04:10:18.550Z,10.63
2017-02-21T04:11:18.852Z,10.68
2017-02-21T04:12:18.868Z,10.64
2017-02-21T04:13:18.879Z,10.63
2017-02-21T04:14:18.899Z,10.61
2017-02-21T04:15:18.997Z,10.61
2017-02-21T04:16:18.632Z,10.64
2017-02-21T04:17:18.941Z,10.61
2017-02-21T04:18:18.957Z,10.64
2017-02-21T04:19:18.977Z,10.6
2017-02-21T04:20:19.004Z,10.6
2017-02-21T04:21:19.006Z,10.64
2017-02-21T04:22:18.700Z,10.69
2017-02-21T04:23:19.038Z,10.63
2017-02-21T04:24:19.060Z,10.59
2017-02-21T04:25:19.079Z,10.61
2017-02-21T04:26:19.078Z,10.61
2017-02-21T04:27:18.706Z,10.61
2017-02-21T04:28:19.284Z,10.64
2017-02-21T04:29:19.151Z,10.69
2017-02-21T04:30:19.142Z,10.68
2017-02-21T04:31:19.162Z,10.59
2017-02-21T04:32:19.189Z,10.64
2017-02-21T04:33:19.190Z,10.68
2017-02-21T04:34:19.212Z,10.63
2017-02-21T04:35:19.222Z,10.71
2017-02-21T04:36:19.332Z,10.61
2017-02-21T04:37:19.266Z,10.63
2017-02-21T04:38:19.274Z,10.59
2017-02-21T04:39:19.289Z,10.63
2017-02-21T04:40:19.301Z,10.64
2017-02-21T04:41:19.331Z,10.6
2017-02-21T04:42:19.332Z,10.67
2017-02-21T04:43:19.347Z,10.61
2017-02-21T04:44:19.368Z,10.57
2017-02-21T04:45:19.380Z,10.57
2017-02-21T04:46:19.403Z,10.57
2017-02-21T04:47:19.409Z,10.57
2017-02-21T04:48:19.442Z,10.56
2017-02-21T04:49:19.446Z,10.6
2017-02-21T04:50:19.467Z,10.57
2017-02-21T04:51:19.506Z,10.61
2017-02-21T04:52:19.490Z,10.56
2017-02-21T04:53:19.523Z,10.54
2017-02-21T04:54:19.521Z,10.61
2017-02-21T04:55:19.541Z,10.57
2017-02-21T04:56:19.549Z,10.57
2017-02-21T04:57:19.567Z,10.57
2017-02-21T04:58:19.604Z,10.56
2017-02-21T04:59:19.603Z,10.57
2017-02-21T05:00:19.612Z,10.64
2017-02-21T05:01:19.661Z,10.56
2017-02-21T05:02:19.356Z,10.64
2017-02-21T05:03:19.686Z,10.56
2017-02-21T05:04:19.688Z,10.56
2017-02-21T05:05:19.711Z,10.56
2017-02-21T05:06:19.727Z,10.59
2017-02-21T05:07:19.802Z,10.54
2017-02-21T05:08:19.747Z,10.51
2017-02-21T05:09:19.757Z,10.53
2017-02-21T05:10:19.776Z,10.57
2017-02-21T05:11:19.810Z,10.59
2017-02-21T05:12:19.808Z,10.54
2017-02-21T05:13:19.826Z,10.59
2017-02-21T05:14:19.880Z,10.57
2017-02-21T05:15:19.853Z,10.56
2017-02-21T05:16:19.869Z,10.67
2017-02-21T05:17:19.910Z,10.57
2017-02-21T05:18:19.896Z,10.57
2017-02-21T05:19:19.912Z,10.6
2017-02-21T05:20:19.925Z,10.6
2017-02-21T05:21:19.944Z,10.68
2017-02-21T05:22:19.954Z,10.6
2017-02-21T05:23:19.982Z,10.59
2017-02-21T05:24:20.037Z,10.59
2017-02-21T05:25:20.016Z,10.64
2017-02-21T05:26:20.034Z,10.61
2017-02-21T05:27:20.040Z,10.64
2017-02-21T05:28:20.050Z,10.59
2017-02-21T05:29:20.067Z,10.61
2017-02-21T05:30:20.082Z,10.6
2017-02-21T05:31:20.095Z,10.6
2017-02-21T05:32:20.135Z,10.64
2017-02-21T05:33:20.127Z,10.71
2017-02-21T05:34:20.156Z,10.67
2017-02-21T05:35:20.160Z,10.63
2017-02-21T05:36:20.173Z,10.64
2017-02-21T05:37:20.201Z,10.6
2017-02-21T05:38:19.839Z,10.64
2017-02-21T05:39:20.221Z,10.64
2017-02-21T05:40:20.237Z,10.68
2017-02-21T05:41:20.254Z,10.69
2017-02-21T05:42:20.269Z,10.68
2017-02-21T05:43:20.299Z,10.69
2017-02-21T05:44:20.312Z,10.61
2017-02-21T05:45:20.312Z,10.68
2017-02-21T05:46:20.328Z,10.63
2017-02-21T05:47:20.358Z,10.57
2017-02-21T05:48:20.360Z,10.61
2017-02-21T05:49:20.387Z,10.67
2017-02-21T05:50:20.402Z,10.61
2017-02-21T05:51:20.412Z,10.61
2017-02-21T05:52:20.430Z,10.61
2017-02-21T05:53:20.443Z,10.59
2017-02-21T05:54:20.460Z,10.67
2017-02-21T05:55:20.474Z,10.64
2017-02-21T05:56:20.485Z,10.64
2017-02-21T05:57:20.626Z,10.6
2017-02-21T05:58:20.530Z,10.67
2017-02-21T05:59:20.534Z,10.61
2017-02-21T06:00:20.547Z,10.64
2017-02-21T06:01:20.676Z,10.63
2017-02-21T06:02:20.587Z,10.61
2017-02-21T06:03:20.695Z,10.63
2017-02-21T06:04:20.702Z,10.63
2017-02-21T06:05:20.665Z,10.64
2017-02-21T06:06:20.675Z,10.69
2017-02-21T06:07:20.723Z,10.67
2017-02-21T06:08:20.716Z,10.68
2017-02-21T06:09:20.733Z,10.64
2017-02-21T06:10:20.799Z,10.69
2017-02-21T06:11:20.808Z,10.69
2017-02-21T06:12:20.806Z,10.63
2017-02-21T06:13:20.816Z,10.68
2017-02-21T06:14:20.824Z,10.63
2017-02-21T06:15:20.834Z,10.67
2017-02-21T06:16:20.841Z,10.6
2017-02-21T06:17:20.817Z,10.69
2017-02-21T06:18:20.830Z,10.67
2017-02-21T06:19:20.855Z,10.67
2017-02-21T06:20:20.863Z,10.63
2017-02-21T06:21:20.875Z,10.64
2017-02-21T06:22:20.898Z,10.6
2017-02-21T06:23:20.904Z,10.64
2017-02-21T06:24:20.922Z,10.6
2017-02-21T06:25:20.549Z,10.59
2017-02-21T06:26:20.950Z,10.63
2017-02-21T06:27:20.982Z,10.57
2017-02-21T06:28:20.998Z,10.63
2017-02-21T06:29:21.006Z,10.57
2017-02-21T06:30:21.019Z,10.56
2017-02-21T06:31:21.029Z,10.56
2017-02-21T06:32:21.060Z,10.57
2017-02-21T06:33:21.071Z,10.57
2017-02-21T06:34:21.081Z,10.6
2017-02-21T06:35:21.098Z,10.6
2017-02-21T06:36:21.109Z,10.51
2017-02-21T06:37:21.139Z,10.57
2017-02-21T06:38:21.147Z,10.49
2017-02-21T06:39:21.157Z,10.56
2017-02-21T06:40:21.226Z,10.59
2017-02-21T06:41:21.199Z,10.57
2017-02-21T06:42:21.211Z,10.56
2017-02-21T06:43:21.234Z,10.59
2017-02-21T06:44:21.236Z,10.51
2017-02-21T06:45:21.250Z,10.57
2017-02-21T06:46:21.265Z,10.56
2017-02-21T06:47:21.298Z,10.56
2017-02-21T06:48:21.307Z,10.54
2017-02-21T06:49:21.325Z,10.61
2017-02-21T06:50:21.331Z,10.59
2017-02-21T06:51:21.357Z,10.59
2017-02-21T06:52:20.964Z,10.6
2017-02-21T06:53:21.400Z,10.54
2017-02-21T06:54:21.402Z,10.57
2017-02-21T06:55:21.415Z,10.57
2017-02-21T06:56:21.431Z,10.6
2017-02-21T06:57:21.455Z,10.56
2017-02-21T06:58:21.467Z,10.6
2017-02-21T06:59:21.669Z,10.6
2017-02-21T07:00:21.594Z,10.53
2017-02-21T07:01:21.507Z,10.6
2017-02-21T07:02:21.527Z,10.57
2017-02-21T07:03:21.555Z,10.68
2017-02-21T07:04:21.556Z,10.57
2017-02-21T07:05:21.592Z,10.56
2017-02-21T07:06:21.690Z,10.64
2017-02-21T07:07:21.607Z,10.68
2017-02-21T07:08:21.617Z,10.68
2017-02-21T07:09:21.228Z,10.6
2017-02-21T07:10:21.655Z,10.59
2017-02-21T07:11:21.668Z,10.69
2017-02-21T07:12:21.693Z,10.63
2017-02-21T07:13:21.701Z,10.68
2017-02-21T07:14:21.304Z,10.6
2017-02-21T07:15:21.730Z,10.57
2017-02-21T07:16:21.734Z,10.67
2017-02-21T07:17:21.870Z,10.67
2017-02-21T07:18:21.801Z,10.68
2017-02-21T07:19:21.789Z,10.69
2017-02-21T07:20:21.810Z,10.72
2017-02-21T07:21:21.835Z,10.67
2017-02-21T07:22:21.836Z,10.72
2017-02-21T07:23:21.843Z,10.75
2017-02-21T07:24:21.899Z,10.75
2017-02-21T07:25:21.877Z,10.69
2017-02-21T07:26:21.890Z,10.67
2017-02-21T07:27:21.917Z,10.74
2017-02-21T07:28:21.925Z,10.74
2017-02-21T07:29:22.000Z,10.75
2017-02-21T07:30:21.965Z,10.81
2017-02-21T07:31:21.968Z,10.75
2017-02-21T07:32:21.978Z,10.78
2017-02-21T07:33:21.996Z,10.76
2017-02-21T07:34:22.038Z,10.79
2017-02-21T07:35:22.045Z,10.79
2017-02-21T07:36:22.059Z,10.78
2017-02-21T07:37:22.062Z,10.75
2017-02-21T07:38:22.083Z,10.74
2017-02-21T07:39:22.088Z,10.82
2017-02-21T07:40:22.322Z,10.81
2017-02-21T07:41:22.127Z,10.76
2017-02-21T07:42:22.143Z,10.82
2017-02-21T07:43:22.154Z,10.81
2017-02-21T07:44:22.174Z,10.78
2017-02-21T07:45:22.187Z,10.76
2017-02-21T07:46:22.203Z,10.81
2017-02-21T07:47:22.228Z,10.81
2017-02-21T07:48:22.254Z,10.93
2017-02-21T07:49:22.248Z,10.79
2017-02-21T07:50:22.263Z,10.81
2017-02-21T07:51:22.294Z,10.78
2017-02-21T07:52:22.304Z,10.79
2017-02-21T07:53:22.321Z,10.82
2017-02-21T07:54:22.341Z,10.78
2017-02-21T07:55:22.344Z,10.78
2017-02-21T07:56:22.377Z,10.79
2017-02-21T07:57:22.389Z,10.79
2017-02-21T07:58:22.502Z,10.78
2017-02-21T07:59:22.411Z,10.79
2017-02-21T08:00:22.447Z,10.79
2017-02-21T08:01:22.436Z,10.75
2017-02-21T08:02:22.479Z,10.81
2017-02-21T08:03:22.472Z,10.89
2017-02-21T08:04:22.486Z,10.84
2017-02-21T08:05:22.696Z,10.92
2017-02-21T08:06:22.698Z,10.9
2017-02-21T08:07:22.834Z,10.84
2017-02-21T08:08:22.710Z,10.87
2017-02-21T08:09:22.720Z,10.86
2017-02-21T08:10:22.729Z,10.81
2017-02-21T08:11:22.730Z,10.94
2017-02-21T08:12:22.873Z,10.93
2017-02-21T08:13:22.348Z,10.9
2017-02-21T08:14:22.753Z,10.92
2017-02-21T08:15:22.919Z,10.93
2017-02-21T08:16:22.767Z,10.89
2017-02-21T08:17:22.711Z,10.89
2017-02-21T08:18:22.716Z,10.92
2017-02-21T08:19:22.832Z,10.89
2017-02-21T08:20:22.743Z,10.97
2017-02-21T08:21:22.556Z,10.93
2017-02-21T08:22:22.389Z,10.94
2017-02-21T08:23:22.786Z,10.94
2017-02-21T08:24:22.806Z,10.97
2017-02-21T08:25:22.884Z,10.96
2017-02-21T08:26:22.948Z,10.99
2017-02-21T08:27:22.867Z,10.94
2017-02-21T08:28:22.470Z,10.93
2017-02-21T08:29:22.887Z,10.99
2017-02-21T08:30:22.904Z,11.02
2017-02-21T08:31:22.913Z,11.02
2017-02-21T08:32:22.938Z,10.94
2017-02-21T08:33:22.954Z,11.05
2017-02-21T08:34:22.977Z,11.11
2017-02-21T08:35:22.979Z,11.08
2017-02-21T08:36:22.994Z,11.14
2017-02-21T08:37:23.053Z,11.12
2017-02-21T08:38:23.023Z,11.19
2017-02-21T08:39:23.055Z,11.15
2017-02-21T08:40:23.057Z,11.11
2017-02-21T08:41:23.078Z,11.22
2017-02-21T08:42:23.106Z,11.17
2017-02-21T08:43:23.112Z,11.23
2017-02-21T08:44:23.122Z,11.12
2017-02-21T08:45:23.162Z,11.18
2017-02-21T08:46:23.162Z,11.17
2017-02-21T08:47:23.166Z,11.12
2017-02-21T08:48:23.188Z,11.23
2017-02-21T08:49:23.203Z,11.22
2017-02-21T08:50:22.820Z,11.17
2017-02-21T08:51:22.858Z,11.17
2017-02-21T08:52:22.850Z,11.23
2017-02-21T08:53:22.876Z,11.17
2017-02-21T08:54:23.294Z,11.26
2017-02-21T08:55:22.908Z,11.22
2017-02-21T08:56:23.312Z,11.26
2017-02-21T08:57:22.939Z,11.25
2017-02-21T08:58:23.351Z,11.25
2017-02-21T08:59:23.372Z,11.33
2017-02-21T09:00:23.373Z,11.26
2017-02-21T09:01:23.414Z,11.3
2017-02-21T09:02:23.528Z,11.32
2017-02-21T09:03:23.423Z,11.23
2017-02-21T09:04:23.440Z,11.22
2017-02-21T09:05:23.568Z,11.27
2017-02-21T09:06:23.601Z,11.22
2017-02-21T09:07:23.610Z,11.22
2017-02-21T09:08:23.655Z,11.27
2017-02-21T09:09:23.517Z,11.19
2017-02-21T09:10:23.629Z,11.25
2017-02-21T09:11:23.644Z,11.3
2017-02-21T09:12:23.634Z,11.22
2017-02-21T09:13:23.583Z,11.27
2017-02-21T09:14:23.595Z,11.27
2017-02-21T09:15:23.639Z,11.22
2017-02-21T09:16:23.633Z,11.22
2017-02-21T09:17:23.686Z,11.35
2017-02-21T09:18:23.697Z,11.25
2017-02-21T09:19:23.785Z,11.32
2017-02-21T09:20:23.696Z,11.29
2017-02-21T09:21:23.711Z,11.32
2017-02-21T09:22:23.732Z,11.32
2017-02-21T09:23:23.859Z,11.29
2017-02-21T09:24:23.758Z,11.27
2017-02-21T09:25:23.790Z,11.26
2017-02-21T09:26:23.802Z,11.25
2017-02-21T09:27:23.808Z,11.29
2017-02-21T09:28:23.826Z,11.35
2017-02-21T09:29:23.452Z,11.27
2017-02-21T09:30:23.880Z,11.36
2017-02-21T09:31:23.885Z,11.23
2017-02-21T09:32:23.906Z,11.3
2017-02-21T09:33:23.907Z,11.23
2017-02-21T09:34:24.030Z,11.32
2017-02-21T09:35:24.042Z,11.23
2017-02-21T09:36:23.963Z,11.35
2017-02-21T09:37:23.970Z,11.19
2017-02-21T09:38:24.022Z,11.23
2017-02-21T09:39:24.006Z,11.19
2017-02-21T09:40:24.023Z,11.29
2017-02-21T09:41:24.047Z,11.32
2017-02-21T09:42:24.050Z,11.27
2017-02-21T09:43:24.066Z,11.25
2017-02-21T09:44:24.092Z,11.29
2017-02-21T09:45:24.109Z,11.32
2017-02-21T09:46:24.121Z,11.27
2017-02-21T09:47:24.148Z,11.3
2017-02-21T09:48:24.156Z,11.26
2017-02-21T09:49:24.175Z,11.27
2017-02-21T09:50:24.186Z,11.33
2017-02-21T09:51:24.215Z,11.29
2017-02-21T09:52:24.214Z,11.41
2017-02-21T09:53:24.260Z,11.3
2017-02-21T09:54:24.250Z,11.36
2017-02-21T09:55:24.272Z,11.43
2017-02-21T09:56:24.292Z,11.36
2017-02-21T09:57:24.299Z,11.37
2017-02-21T09:58:24.332Z,11.4
2017-02-21T09:59:24.329Z,11.4
2017-02-21T10:00:24.344Z,11.35
2017-02-21T10:01:24.445Z,11.36
2017-02-21T10:02:24.478Z,11.33
2017-02-21T10:03:24.397Z,11.37
2017-02-21T10:04:24.402Z,11.37
2017-02-21T10:05:24.577Z,11.43
2017-02-21T10:06:24.448Z,11.43
2017-02-21T10:07:24.460Z,11.33
2017-02-21T10:08:24.079Z,11.33
2017-02-21T10:09:24.503Z,11.43
2017-02-21T10:10:24.507Z,11.36
2017-02-21T10:11:24.526Z,11.36
2017-02-21T10:12:24.155Z,11.36
2017-02-21T10:13:24.558Z,11.27
2017-02-21T10:14:24.577Z,11.32
2017-02-21T10:15:24.588Z,11.37
2017-02-21T10:16:24.599Z,11.33
2017-02-21T10:17:24.626Z,11.37
2017-02-21T10:18:24.633Z,11.29
2017-02-21T10:19:24.653Z,11.33
2017-02-21T10:20:24.667Z,11.3
2017-02-21T10:21:24.690Z,11.33
2017-02-21T10:22:24.698Z,11.37
2017-02-21T10:23:24.725Z,11.41
2017-02-21T10:24:24.737Z,11.43
2017-02-21T10:25:24.748Z,11.41
2017-02-21T10:26:24.781Z,11.4
2017-02-21T10:27:24.809Z,11.4
2017-02-21T10:28:24.827Z,11.43
2017-02-21T10:29:24.813Z,11.37
2017-02-21T10:30:24.833Z,11.43
2017-02-21T10:31:24.849Z,11.52
2017-02-21T10:32:24.865Z,11.5
2017-02-21T10:33:24.883Z,11.55
2017-02-21T10:34:24.899Z,11.47
2017-02-21T10:35:24.910Z,11.55
2017-02-21T10:36:24.930Z,11.68
2017-02-21T10:37:24.940Z,11.63
2017-02-21T10:38:24.962Z,11.72
2017-02-21T10:39:24.991Z,11.73
2017-02-21T10:40:24.989Z,11.83
2017-02-21T10:41:25.012Z,11.83
2017-02-21T10:42:25.023Z,11.9
2017-02-21T10:43:25.150Z,11.94
2017-02-21T10:44:25.076Z,12.03
2017-02-21T10:45:25.083Z,12.09
2017-02-21T10:46:24.693Z,12.15
2017-02-21T10:47:25.115Z,12.13
2017-02-21T10:48:25.133Z,12.12
2017-02-21T10:49:25.142Z,12.22
2017-02-21T10:50:25.166Z,12.22
2017-02-21T10:51:25.175Z,12.25
2017-02-21T10:52:25.210Z,12.24
2017-02-21T10:53:24.813Z,12.31
2017-02-21T10:54:25.225Z,12.31
2017-02-21T10:55:25.242Z,12.37
2017-02-21T10:56:25.262Z,12.35
2017-02-21T10:57:25.284Z,12.39
2017-02-21T10:58:25.306Z,12.4
2017-02-21T10:59:25.342Z,12.46
2017-02-21T11:00:25.322Z,12.46
2017-02-21T11:01:25.355Z,12.49
2017-02-21T11:02:25.357Z,12.46
2017-02-21T11:03:25.376Z,12.57
2017-02-21T11:04:25.393Z,12.5
2017-02-21T11:05:25.406Z,12.61
2017-02-21T11:06:25.425Z,12.62
2017-02-21T11:07:25.450Z,12.67
2017-02-21T11:08:25.456Z,12.64
2017-02-21T11:09:25.470Z,12.67
2017-02-21T11:10:25.095Z,12.64
2017-02-21T11:11:25.529Z,12.65
2017-02-21T11:12:25.536Z,12.64
2017-02-21T11:13:25.543Z,12.67
2017-02-21T11:14:25.559Z,12.62
2017-02-21T11:15:25.589Z,12.64
2017-02-21T11:16:25.596Z,12.6
2017-02-21T11:17:25.613Z,12.7
2017-02-21T11:18:25.623Z,12.75
2017-02-21T11:19:25.650Z,12.72
2017-02-21T11:20:25.759Z,12.68
2017-02-21T11:21:25.684Z,12.6
2017-02-21T11:22:25.704Z,12.65
2017-02-21T11:23:25.709Z,12.61
2017-02-21T11:24:25.740Z,12.54
2017-02-21T11:25:25.748Z,12.64
2017-02-21T11:26:25.761Z,12.5
2017-02-21T11:27:25.777Z,12.64
2017-02-21T11:28:25.812Z,12.5
2017-02-21T11:29:25.812Z,12.57
2017-02-21T11:30:25.896Z,12.5
2017-02-21T11:31:25.862Z,12.55
2017-02-21T11:32:25.866Z,12.6
2017-02-21T11:33:25.898Z,12.5
2017-02-21T11:34:25.509Z,12.53
2017-02-21T11:35:25.532Z,12.53
2017-02-21T11:36:25.544Z,12.49
2017-02-21T11:37:25.563Z,12.4
2017-02-21T11:38:25.981Z,12.43
2017-02-21T11:39:25.984Z,12.45
2017-02-21T11:40:26.009Z,12.47
2017-02-21T11:41:25.634Z,12.45
2017-02-21T11:42:25.637Z,12.4
2017-02-21T11:43:26.048Z,12.42
2017-02-21T11:44:26.067Z,12.42
2017-02-21T11:45:25.703Z,12.45
2017-02-21T11:46:26.103Z,12.43
2017-02-21T11:47:26.135Z,12.43
2017-02-21T11:48:26.147Z,12.37
2017-02-21T11:49:25.760Z,12.31
2017-02-21T11:50:25.795Z,12.24
2017-02-21T11:51:26.188Z,12.27
2017-02-21T11:52:25.818Z,12.28
2017-02-21T11:53:26.221Z,12.22
2017-02-21T11:54:25.845Z,12.2
2017-02-21T11:55:26.251Z,12.2
2017-02-21T11:56:26.262Z,12.22
2017-02-21T11:57:25.897Z,12.15
2017-02-21T11:58:26.312Z,12.18
2017-02-21T11:59:26.320Z,11.99
2017-02-21T12:00:25.946Z,12.07
2017-02-21T12:01:26.422Z,11.99
2017-02-21T12:02:26.382Z,11.97
2017-02-21T12:03:26.397Z,12
2017-02-21T12:04:26.416Z,12.06
2017-02-21T12:05:26.434Z,12.07
2017-02-21T12:06:26.455Z,12.07
2017-02-21T12:07:26.470Z,12.02
2017-02-21T12:08:26.478Z,11.97
2017-02-21T12:09:26.503Z,12.09
2017-02-21T12:10:26.510Z,12.03
2017-02-21T12:11:26.534Z,11.87
2017-02-21T12:12:26.572Z,11.97
2017-02-21T12:13:26.560Z,11.91
2017-02-21T12:14:26.579Z,11.87
2017-02-21T12:15:26.615Z,11.88
2017-02-21T12:16:26.615Z,11.84
2017-02-21T12:17:26.632Z,11.88
2017-02-21T12:18:26.656Z,11.91
2017-02-21T12:19:26.660Z,11.84
2017-02-21T12:20:26.686Z,11.91
2017-02-21T12:21:26.695Z,11.91
2017-02-21T12:22:26.720Z,11.95
2017-02-21T12:23:26.333Z,11.9
2017-02-21T12:24:26.754Z,11.88
2017-02-21T12:25:26.769Z,11.94
2017-02-21T12:26:26.783Z,12
2017-02-21T12:27:26.803Z,12
2017-02-21T12:28:26.817Z,11.97
2017-02-21T12:29:26.836Z,12.13
2017-02-21T12:30:26.458Z,12.09
2017-02-21T12:31:26.484Z,12.03
2017-02-21T12:32:26.881Z,12.06
2017-02-21T12:33:26.515Z,12.03
2017-02-21T12:34:26.536Z,12.04
2017-02-21T12:35:26.932Z,12.1
2017-02-21T12:36:26.952Z,12.15
2017-02-21T12:37:26.577Z,12.03
2017-02-21T12:38:26.990Z,12.06
2017-02-21T12:39:26.608Z,12.1
2017-02-21T12:40:27.024Z,12.09
2017-02-21T12:41:27.053Z,12
2017-02-21T12:42:27.058Z,12.06
2017-02-21T12:43:26.703Z,12.03
2017-02-21T12:44:27.202Z,12.03
2017-02-21T12:45:27.250Z,12.07
2017-02-21T12:46:27.156Z,12.04
2017-02-21T12:47:26.756Z,12.12
2017-02-21T12:48:27.165Z,12.02
2017-02-21T12:49:27.309Z,12.1
2017-02-21T12:50:27.318Z,12.09
2017-02-21T12:51:27.326Z,12.04
2017-02-21T12:52:27.299Z,12.1
2017-02-21T12:53:27.240Z,12.09
2017-02-21T12:54:27.262Z,12.09